L'Assomption, Canada
Current Conditions -  °F | °C
As of 8:28 AM on Wednesday 22 Oct 2014 (Local Time) from CYHU Reporting Station
Light Rain Light Rain  
Wind Chill: 37°   Ceiling: 3300
Heat Index: 45°   Visibility: 9mi
Dew Point: 34°   Wind: 16mph
Humidity: 66%   Direction: 40°NE
Pressure: 30.28"   Gusts: 23mph
Location:  45.82°N, 73.43°W
Report Text: CYHU 221228Z AUTO 04014G20KT 9SM -RA BKN033 OVC060 07/01 A3028 RMK SLP253
Loading
Personal Weather Stations






























Interactive Weather Map
Tropical Storm Tracking
New forecast layout! Learn more

10-Day Weather Forecast

Advertisements
Track Severe Weather on mobile